createdAt,value
2022-10-10T00:46:16.529Z,100.00
2022-10-10T00:47:23.722Z,100.00
2022-10-10T00:48:42.584Z,100.00
2022-10-10T00:49:48.201Z,100.00
2022-10-10T00:51:02.152Z,100.00
2022-10-10T00:53:01.457Z,100.00
2022-10-10T00:53:32.820Z,100.00
2022-10-10T01:14:02.792Z,100.00
2022-10-10T01:15:13.902Z,100.00
2022-10-10T01:17:15.779Z,100.00
2022-10-10T01:18:13.037Z,100.00
2022-10-10T01:19:25.897Z,100.00
2022-10-10T01:20:38.734Z,100.00
2022-10-10T01:22:11.381Z,100.00
2022-10-10T01:23:36.261Z,100.00
2022-10-10T01:25:01.415Z,100.00
2022-10-10T01:26:32.511Z,100.00
2022-10-10T01:27:47.701Z,100.00
2022-10-10T01:29:06.314Z,100.00
2022-10-10T01:30:16.332Z,100.00
2022-10-10T01:31:23.460Z,100.00
2022-10-10T01:55:51.080Z,100.00
2022-10-10T01:57:14.618Z,100.00
2022-10-10T01:58:39.107Z,100.00
2022-10-10T01:59:48.650Z,100.00
2022-10-10T02:01:07.016Z,100.00
2022-10-10T02:02:23.738Z,100.00
2022-10-10T03:25:42.946Z,100.00
2022-10-10T03:40:36.687Z,100.00
2022-10-10T03:42:54.924Z,100.00
2022-10-10T05:30:46.924Z,99.60
2022-10-10T05:33:15.030Z,98.55
2022-10-10T05:34:19.015Z,97.75
2022-10-10T05:35:51.716Z,97.75
2022-10-10T06:04:22.303Z,93.65
2022-10-10T07:14:55.662Z,86.04
2022-10-10T07:16:02.827Z,85.21
2022-10-10T07:17:13.538Z,84.75
2022-10-10T07:18:20.679Z,84.75
2022-10-10T07:19:00.190Z,87.19
2022-10-10T08:17:53.056Z,77.30
2022-10-10T08:18:57.690Z,77.30
2022-10-10T08:20:04.844Z,77.19
2022-10-10T08:21:15.398Z,77.08
2022-10-10T08:22:41.315Z,78.01
2022-10-10T08:24:03.294Z,78.26
2022-10-10T08:25:28.986Z,77.73
2022-10-10T08:26:08.828Z,76.85
2022-10-10T08:31:30.900Z,74.49
2022-10-10T08:32:35.204Z,74.25
2022-10-10T08:33:46.297Z,73.96
2022-10-10T08:34:56.979Z,73.96
2022-10-10T08:37:28.804Z,75.54
2022-10-10T08:38:31.583Z,75.54
2022-10-10T08:39:27.756Z,75.50
2022-10-10T08:39:38.690Z,75.48
2022-10-10T08:41:58.958Z,75.71
2022-10-10T08:42:01.066Z,75.71
2022-10-10T08:43:12.110Z,75.15
2022-10-10T08:44:32.190Z,74.37
2022-10-10T08:45:39.249Z,74.79
2022-10-10T08:47:54.071Z,74.79
2022-10-10T08:48:16.451Z,73.78
2022-10-10T08:49:43.459Z,74.42
2022-10-10T08:50:55.945Z,74.99
2022-10-10T08:52:24.089Z,74.99
2022-10-10T08:53:40.402Z,74.99
2022-10-10T08:55:08.263Z,75.35
2022-10-10T08:57:08.278Z,75.51
2022-10-10T08:57:32.378Z,75.51
2022-10-10T08:58:43.114Z,73.69
2022-10-10T09:01:23.787Z,73.09
2022-10-10T09:02:56.330Z,73.18
2022-10-10T09:03:57.000Z,73.62
2022-10-10T09:05:03.007Z,73.37
2022-10-10T09:06:22.165Z,73.42
2022-10-10T09:07:41.078Z,72.51
2022-10-10T09:08:51.816Z,72.51
2022-10-10T09:10:14.281Z,70.93
2022-10-10T09:11:44.940Z,70.93
2022-10-10T09:12:59.428Z,71.84
2022-10-10T09:14:19.909Z,71.51
2022-10-10T09:15:36.113Z,71.51
2022-10-10T09:17:16.553Z,71.86
2022-10-10T09:18:34.074Z,71.29
2022-10-10T09:21:07.323Z,70.23
2022-10-10T09:21:24.446Z,70.05
2022-10-10T09:22:23.626Z,70.76
2022-10-10T09:23:45.522Z,70.27
2022-10-10T09:24:54.412Z,69.26
2022-10-10T09:26:13.670Z,69.29
2022-10-10T09:27:26.651Z,69.67
2022-10-10T09:28:41.038Z,68.36
2022-10-10T09:30:06.920Z,68.74
2022-10-10T09:31:23.030Z,68.19
2022-10-10T09:32:30.197Z,68.19
2022-10-10T09:33:44.422Z,69.28
2022-10-10T09:35:27.910Z,67.94
2022-10-10T09:36:34.543Z,67.94
2022-10-10T09:39:59.174Z,66.17
2022-10-10T09:57:00.965Z,65.44
2022-10-10T09:58:36.268Z,64.93
2022-10-10T10:00:22.631Z,65.74
2022-10-10T10:29:39.097Z,65.10
2022-10-10T10:44:00.404Z,63.39
2022-10-10T10:48:03.348Z,63.94
2022-10-10T10:51:18.117Z,64.46
2022-10-10T10:52:23.917Z,62.07
2022-10-10T10:54:09.201Z,61.70
2022-10-10T11:03:38.545Z,63.04
2022-10-10T11:05:17.446Z,63.04
2022-10-10T11:05:36.750Z,64.38
2022-10-10T11:06:54.187Z,64.38
2022-10-10T11:08:02.366Z,64.49
2022-10-10T11:09:44.986Z,64.49
2022-10-10T11:35:40.198Z,62.39
2022-10-10T12:32:25.352Z,52.21
2022-10-10T12:33:33.243Z,51.11
2022-10-10T12:34:53.122Z,51.01
2022-10-10T13:39:12.815Z,45.19
2022-10-10T13:41:05.956Z,45.21
2022-10-10T13:41:32.803Z,43.74
2022-10-10T13:43:08.433Z,43.74
2022-10-10T13:43:54.498Z,44.80
2022-10-10T13:44:59.689Z,44.80
2022-10-10T13:46:05.376Z,44.78
2022-10-10T13:47:38.108Z,45.07
2022-10-10T13:48:42.039Z,45.07
2022-10-10T13:49:56.915Z,44.42
2022-10-10T13:52:46.397Z,45.38
2022-10-10T13:53:57.021Z,45.64
2022-10-10T13:55:17.508Z,46.57
2022-10-10T13:56:33.434Z,46.53
2022-10-10T14:29:56.847Z,49.31
2022-10-10T14:31:14.371Z,49.31
2022-10-10T15:41:51.367Z,58.47
2022-10-10T15:43:31.581Z,58.47
2022-10-10T15:57:46.940Z,59.10
2022-10-10T16:03:38.009Z,60.37
2022-10-10T16:21:49.433Z,61.48
2022-10-10T16:22:20.407Z,61.48
2022-10-10T16:22:55.093Z,62.52
2022-10-10T16:23:59.433Z,62.03
2022-10-10T16:25:21.774Z,62.26
2022-10-10T16:26:12.529Z,62.36
2022-10-10T16:27:18.000Z,62.11
2022-10-10T16:28:21.964Z,62.68
2022-10-10T16:29:27.574Z,62.68
2022-10-10T16:30:31.736Z,62.66
2022-10-10T16:31:38.036Z,62.66
2022-10-10T16:32:42.850Z,63.01
2022-10-10T16:33:50.763Z,63.01
2022-10-10T18:04:39.221Z,67.64
2022-10-10T18:09:28.160Z,67.59
2022-10-10T18:10:40.228Z,67.41
2022-10-10T18:11:42.236Z,67.22
2022-10-10T18:12:56.552Z,67.17
2022-10-10T18:14:24.051Z,67.35
2022-10-10T18:18:21.938Z,67.58
2022-10-10T18:19:26.996Z,67.58
2022-10-10T18:20:35.258Z,67.60
2022-10-10T18:21:56.416Z,67.40
2022-10-10T18:22:52.389Z,67.88
2022-10-10T18:25:22.909Z,67.59
2022-10-10T18:26:50.694Z,67.68
2022-10-10T18:27:43.696Z,68.07
2022-10-10T18:28:49.934Z,68.07
2022-10-10T18:29:58.097Z,67.37
2022-10-10T18:31:13.015Z,67.74
2022-10-10T18:32:16.413Z,67.51
2022-10-10T18:40:21.876Z,68.17
2022-10-10T18:55:37.501Z,68.61
2022-10-10T19:18:38.514Z,69.40
2022-10-10T19:36:14.872Z,70.80
2022-10-10T19:36:59.175Z,70.97
2022-10-10T19:37:18.977Z,71.02
2022-10-10T20:22:39.548Z,74.84
2022-10-10T20:23:44.341Z,74.84
2022-10-10T20:24:48.315Z,74.73
2022-10-10T20:25:57.074Z,74.80
2022-10-10T20:27:01.144Z,74.84
2022-10-10T20:28:05.227Z,74.85
2022-10-10T20:29:09.112Z,74.93
2022-10-10T20:30:13.232Z,74.82
2022-10-10T20:31:21.723Z,74.82
2022-10-10T20:32:25.725Z,75.40
2022-10-10T20:33:29.648Z,75.40
2022-10-10T20:34:40.771Z,75.40
2022-10-10T20:35:44.869Z,75.17
2022-10-10T20:36:48.853Z,75.58
2022-10-10T20:37:52.835Z,75.56
2022-10-10T20:38:59.400Z,75.72
2022-10-10T20:40:05.875Z,75.43
2022-10-10T20:41:09.792Z,75.73
2022-10-10T20:42:13.899Z,75.73
2022-10-10T20:43:17.894Z,75.91
2022-10-10T20:44:22.047Z,76.36
2022-10-10T20:45:29.278Z,76.36
2022-10-10T20:46:59.358Z,76.14
2022-10-10T20:47:43.565Z,76.47
2022-10-10T20:48:50.557Z,76.47
2022-10-10T20:49:54.413Z,75.69
2022-10-10T20:51:03.943Z,76.45
2022-10-10T21:18:13.283Z,77.83
2022-10-10T21:20:48.179Z,77.67
2022-10-10T21:57:40.109Z,80.88
2022-10-10T21:58:34.789Z,80.71
2022-10-10T22:58:01.004Z,85.30
2022-10-10T22:59:06.846Z,84.86
2022-10-10T23:00:12.221Z,84.93
2022-10-10T23:01:19.399Z,84.85
2022-10-10T23:02:30.213Z,84.85
2022-10-10T23:15:40.965Z,84.62
2022-10-10T23:16:47.593Z,85.71
2022-10-10T23:51:43.197Z,88.41
2022-10-10T23:52:50.443Z,88.56
2022-10-10T23:55:58.655Z,89.05
2022-10-10T23:56:47.124Z,88.83
